• Join FlightAware (Why Join?)
  • Login
  • US Flag 
09:32AM EDT


 

Airport Tracker/Info


-or-


 

Live Flight TrackerFlight Track Log ✈ AWE1716 ✈ 04-Sep-2014 ✈ KIAH - KPHL

Flight Track Log - Related Links

Times and Time Zones

All times are in EDT time to prevent confusion due to time zone crossing. See the AWE1716 flight status page for this flight to view local times or setup timezone preferences in your user account.

Time Position Orientation Groundspeed Altitude Reporting Facility
EDT Latitude Longitude Course Direction KTS MPH feet Rate Location/Type
07:17AM 29.9614 -95.3411 30° Northeast 153 176 900  Level Houston Center
07:18AM 30.0025 -95.3072 36° Northeast 235 270 2,800 1,980 Climbing Houston Center
07:19AM 30.0703 -95.2864 15° North 243 280 5,500 2,640 Climbing Houston Center
07:20AM 30.2753 -95.0977 33° Northeast  Level FlightAware Approximate
07:20AM 30.1325 -95.2314 37° Northeast 276 318 8,500  Level Houston Center
07:21AM 30.3747 -95.0202 35° Northeast  Level FlightAware Approximate
07:21AM 30.2008 -95.1747 36° Northeast 296 341 10,900  Level Houston Center
07:22AM 30.4700 -94.9367 30° Northeast  Level FlightAware Approximate
07:22AM 30.2789 -95.1089 36° Northeast 344 396 13,200  Level Houston Center
07:23AM 30.3603 -95.0422 35° Northeast 352 405 15,800 2,400 Climbing Houston Center
07:24AM 30.4553 -94.9669 34° Northeast 371 427 18,100 2,040 Climbing Houston Center
07:25AM 30.5458 -94.8983 33° Northeast 387 445 20,000 1,800 Climbing Houston Center
07:26AM 30.6389 -94.8261 34° Northeast 399 459 21,800 1,620 Climbing Houston Center
07:27AM 30.7347 -94.7522 34° Northeast 410 472 23,400 1,500 Climbing Houston Center
07:28AM 30.8325 -94.6767 34° Northeast 418 481 24,900 1,440 Climbing Houston Center
07:29AM 30.9328 -94.5989 34° Northeast 431 496 26,400 1,380 Climbing Houston Center
07:31AM 31.1375 -94.4392 34° Northeast 449 517 29,100 1,380 Climbing Fort Worth Center
07:32AM 31.2408 -94.3592 33° Northeast 451 519 30,600 1,860 Climbing Fort Worth Center
07:33AM 31.3633 -94.2653 33° Northeast 447 514 33,100 1,680 Climbing Houston Center
07:35AM 31.4592 -94.1897 34° Northeast 423 487 34,300 1,080 Climbing Houston Center
07:36AM 31.5561 -94.1131 34° Northeast 421 484 35,300 900 Climbing Houston Center
07:36AM 31.6353 -94.0522 33° Northeast 423 487 36,100 840 Climbing Fort Worth Center
07:37AM 31.7433 -93.9672 34° Northeast 423 487 37,000 420 Climbing Fort Worth Center
07:38AM 31.8406 -93.8814 37° Northeast 433 498 37,000  Level Fort Worth Center
07:39AM 31.9472 -93.7847 38° Northeast 445 512 37,000  Level Fort Worth Center
07:41AM 32.0369 -93.7017 38° Northeast 446 513 37,000  Level Fort Worth Center
07:42AM 32.1344 -93.6128 38° Northeast 446 513 37,000  Level Fort Worth Center
07:43AM 32.2408 -93.5144 38° Northeast 439 505 37,000  Level Fort Worth Center
07:44AM 32.3383 -93.4219 39° Northeast 446 513 37,000  Level Fort Worth Center
07:45AM 32.4386 -93.3308 37° Northeast 454 522 37,000  Level Fort Worth Center
07:46AM 32.5350 -93.2400 38° Northeast 449 517 37,000  Level Fort Worth Center
07:47AM 32.6325 -93.1486 38° Northeast 449 517 37,000  Level Fort Worth Center
07:48AM 32.7300 -93.0589 38° Northeast 447 514 37,000  Level Fort Worth Center
07:49AM 32.8269 -92.9669 39° Northeast 447 514 37,000  Level Fort Worth Center
07:50AM 32.9256 -92.8747 38° Northeast 451 519 37,000  Level Fort Worth Center
07:51AM 33.0397 -92.8136 24° Northeast 452 520 37,000  Level Fort Worth Center
07:52AM 33.1786 -92.7575 19° North 443 510 37,000  Level Fort Worth Center
07:53AM 33.2714 -92.6561 42° Northeast 454 522 37,000  Level Fort Worth Center
07:54AM 33.3575 -92.5481 46° Northeast 453 521 37,000  Level Fort Worth Center
07:55AM 33.4439 -92.4392 46° Northeast 452 520 37,000  Level Fort Worth Center
07:56AM 33.5289 -92.3286 47° Northeast 453 521 37,000  Level Fort Worth Center
07:57AM 33.6058 -92.2078 53° Northeast 453 521 37,000  Level Fort Worth Center
07:58AM 33.6836 -92.0897 52° Northeast 453 521 37,000  Level Fort Worth Center
07:59AM 33.7617 -91.9694 52° Northeast 454 522 37,000  Level Fort Worth Center
08:00AM 33.8394 -91.8481 52° Northeast 455 524 37,000  Level Fort Worth Center
08:01AM 33.9167 -91.7289 52° Northeast 455 524 37,000  Level Fort Worth Center
08:02AM 34.0094 -91.5844 52° Northeast 455 524 37,000  Level Fort Worth Center
08:03AM 34.0869 -91.4625 52° Northeast 455 524 37,000  Level Fort Worth Center
08:04AM 34.1656 -91.3422 52° Northeast 455 524 37,000  Level Fort Worth Center
08:05AM 34.2350 -91.2344 52° Northeast 456 525 37,000  Level Fort Worth Center
08:06AM 34.3286 -91.0867 52° Northeast 459 528 37,000  Level Memphis Center
08:07AM 34.4211 -90.9381 53° Northeast 459 528 37,000  Level Memphis Center
08:08AM 34.4986 -90.8164 52° Northeast 459 528 37,000  Level Memphis Center
08:09AM 34.5775 -90.6903 53° Northeast 463 533 37,000  Level Memphis Center
08:10AM 34.6544 -90.5672 53° Northeast 463 533 37,000  Level Memphis Center
08:11AM 34.7325 -90.4422 53° Northeast 463 533 37,000  Level Memphis Center
08:12AM 34.8119 -90.3169 52° Northeast 463 533 37,000  Level Memphis Center
08:13AM 34.8900 -90.1914 53° Northeast 463 533 37,000  Level Memphis Center
08:14AM 34.9689 -90.0633 53° Northeast 464 534 37,000  Level Memphis Center
08:15AM 35.0383 -89.9253 58° Northeast 466 536 37,000  Level Memphis Center
08:16AM 35.0914 -89.7756 67° East 471 542 37,000  Level Memphis Center
08:17AM 35.1431 -89.6267 67° East 471 542 37,000  Level Memphis Center
08:18AM 35.2050 -89.4503 67° East 471 542 37,000  Level Memphis Center
08:19AM 35.2467 -89.3328 67° East 471 542 37,000  Level Memphis Center
08:21AM 35.3083 -89.1564 67° East 471 542 37,000  Level Memphis Center
08:22AM 35.3594 -89.0092 67° East 471 542 37,000  Level Memphis Center
08:23AM 35.4119 -88.8600 67° East 472 543 37,000  Level Memphis Center
08:24AM 35.4628 -88.7133 67° East 472 543 37,000  Level Memphis Center
08:25AM 35.5147 -88.5628 67° East 475 547 37,000  Level Memphis Center
08:26AM 35.5758 -88.3883 67° East 475 547 37,000  Level Memphis Center
08:27AM 35.6278 -88.2317 68° East 477 549 37,000  Level Memphis Center
08:28AM 35.6761 -88.0883 67° East 473 544 37,000  Level Memphis Center
08:29AM 35.7261 -87.9372 68° East 473 544 37,000  Level Memphis Center
08:30AM 35.7764 -87.7856 68° East 473 544 37,000  Level Memphis Center
08:31AM 35.8261 -87.6364 68° East 473 544 37,000  Level Memphis Center
08:32AM 35.8775 -87.4806 68° East 474 545 37,000  Level Memphis Center
08:33AM 35.9289 -87.3261 68° East 480 552 37,000  Level Memphis Center
08:34AM 35.9881 -87.1456 68° East 481 554 37,000  Level Memphis Center
08:35AM 36.0389 -86.9906 68° East 485 558 37,000  Level Memphis Center
08:36AM 36.0881 -86.8331 69° East 490 564 37,000  Level Memphis Center
08:37AM 36.1369 -86.6769 69° East 495 570 37,000  Level Memphis Center
08:38AM 36.1878 -86.5236 68° East 487 560 37,000  Level Memphis Center
08:39AM 36.2378 -86.3689 68° East 482 555 37,000  Level Memphis Center
08:40AM 36.2978 -86.1856 68° East 485 558 37,000  Level Memphis Center
08:41AM 36.3489 -86.0292 68° East 486 559 37,000  Level Memphis Center
08:42AM 36.3981 -85.8731 69° East 485 558 37,000  Level Memphis Center
08:43AM 36.4478 -85.7169 68° East 485 558 37,000  Level Memphis Center
08:44AM 36.4969 -85.5600 69° East 485 558 37,000  Level Memphis Center
08:45AM 36.5461 -85.4025 69° East 485 558 37,100  Climbing Memphis Center
08:46AM 36.5953 -85.2458 69° East 485 558 37,000 -60 Descending Memphis Center
08:47AM 36.6439 -85.0878 69° East 485 558 37,000  Level Memphis Center
08:48AM 36.7022 -84.8992 69° East 485 558 37,000  Level Memphis Center
08:50AM 36.7586 -84.7100 70° East 486 559 37,000  Level Indianapolis Center
08:51AM 36.8069 -84.5522 69° East 486 559 37,000  Level Indianapolis Center
08:52AM 36.8594 -84.3739 70° East 486 559 37,000  Level Indianapolis Center
08:53AM 36.9069 -84.2164 69° East 485 558 37,000  Level Indianapolis Center
08:54AM 36.9547 -84.0594 69° East 485 558 37,000  Level Indianapolis Center
08:55AM 37.0014 -83.9014 70° East 485 558 37,000  Level Indianapolis Center
08:56AM 37.0547 -83.7192 70° East 482 555 37,000  Level Indianapolis Center
08:57AM 37.1011 -83.5617 70° East 481 554 37,000  Level Indianapolis Center
08:58AM 37.1475 -83.4033 70° East 481 554 37,000  Level Indianapolis Center
08:59AM 37.1931 -83.2425 70° East 482 555 37,000  Level Indianapolis Center
09:00AM 37.2397 -83.0833 70° East 482 555 37,000  Level Indianapolis Center
09:01AM 37.2856 -82.9222 70° East 482 555 37,000  Level Indianapolis Center
09:02AM 37.3306 -82.7614 71° East 482 555 37,000  Level Indianapolis Center
09:03AM 37.3758 -82.6008 70° East 482 555 37,000  Level Indianapolis Center
09:04AM 37.4283 -82.4150 70° East 482 555 37,000  Level Indianapolis Center
09:05AM 37.4719 -82.2567 71° East 482 555 37,000  Level Indianapolis Center
09:06AM 37.5153 -82.0967 71° East 481 554 37,000  Level Indianapolis Center
09:07AM 37.5589 -81.9400 71° East 480 552 37,000  Level Indianapolis Center
09:08AM 37.6014 -81.7814 71° East 477 549 37,000  Level Indianapolis Center
09:09AM 37.6456 -81.6225 71° East 477 549 37,000  Level Indianapolis Center
09:10AM 37.6925 -81.4511 71° East 475 547 37,000  Level Indianapolis Center
09:11AM 37.7344 -81.2947 71° East 474 545 37,000  Level Indianapolis Center
09:12AM 37.7758 -81.1367 72° East 474 545 37,000 -60 Level Indianapolis Center
09:13AM 37.7897 -80.9708 84° East 476 548 36,900  Descending Indianapolis Center
09:14AM 37.8028 -80.7717 85° East 476 548 37,000  Climbing Indianapolis Center
09:15AM 37.8122 -80.6242 85° East 477 549 37,000  Level Indianapolis Center
09:16AM 37.8244 -80.4356 85° East 478 550 37,000  Level Indianapolis Center
09:18AM 37.8350 -80.2664 85° East 479 551 37,000 -840 Level Indianapolis Center
09:19AM 37.8453 -80.0972 86° East 479 551 35,300 -1,920 Descending Indianapolis Center
09:20AM 37.8561 -79.9297 85° East 479 551 33,100 -2,100 Descending Indianapolis Center
09:21AM 37.8675 -79.7247 86° East 479 551 31,000 -1,020 Descending Indianapolis Center
09:22AM 37.8778 -79.5531 86° East 480 552 31,000  Level Indianapolis Center
09:23AM 37.8883 -79.3453 86° East 485 558 31,000  Level Washington Center
09:24AM 37.8978 -79.1739 86° East 486 559 31,000  Level Washington Center
09:25AM 37.9133 -79.0033 83° East 486 559 31,000  Level Washington Center
09:26AM 37.9383 -78.8008 81° East 486 559 31,000  Level Washington Center
09:27AM 37.9586 -78.6336 81° East 484 557 31,000  Level Washington Center
09:28AM 37.9769 -78.4658 82° East 483 556 31,000  Level Washington Center
09:29AM 37.9981 -78.2975 81° East 483 556 31,000  Level Washington Center
09:30AM 38.0250 -78.1397 78° East 484 557 31,000  Level Washington Center
09:31AM 38.1050 -77.9703 59° Northeast 471 542 31,000 -540 Level Washington Center
09:32AM 38.1744 -77.8328 57° Northeast 468 539 30,000 -1,020 Descending Washington Center
09:33AM 38.2411 -77.6953 58° Northeast 464 534 29,000 -540 Descending Washington Center
09:34AM 38.3086 -77.5608 57° Northeast 459 528 29,000  Level Washington Center
09:35AM 38.3758 -77.4256 58° Northeast 455 524 29,000  Level Washington Center
09:36AM 38.4556 -77.2625 58° Northeast 455 524 29,000  Level Washington Center
09:37AM 38.5214 -77.1267 58° Northeast 455 524 29,000 -300 Level Washington Center
09:39AM 38.5872 -76.9908 58° Northeast 455 524 28,500 -1,440 Descending Washington Center
09:40AM 38.6519 -76.8564 58° Northeast 450 518 26,100 -2,220 Descending Washington Center
09:41AM 38.7108 -76.7211 61° Northeast 439 505 24,000 -1,680 Descending Washington Center
09:42AM 38.7467 -76.5475 75° East 424 488 22,600 -1,740 Descending Washington Center
09:43AM 38.7772 -76.4058 74° East 417 480 20,500 -2,040 Descending Washington Center
09:44AM 38.8047 -76.2678 76° East 403 464 18,400 -2,100 Descending Washington Center
09:45AM 38.8325 -76.1336 75° East 399 459 16,200 -1,740 Descending Washington Center
09:46AM 38.8592 -76.0042 75° East 383 441 14,900 -660 Descending Washington Center
09:47AM 38.8942 -75.8506 74° East 379 436 14,900  Level Washington Center
09:48AM 38.9703 -75.7611 42° Northeast 375 432 14,900 -780 Level Washington Center
09:49AM 39.0569 -75.6844 34° Northeast 377 434 13,400 -1,500 Descending Washington Center
09:50AM 39.1572 -75.6658 North 362 417 11,800 -1,560 Descending Washington Center
09:51AM 39.2522 -75.6575 North 345 397 10,200 -960 Descending Washington Center
09:52AM 39.3286 -75.6128 24° Northeast 315 362 9,900 -900 Descending Washington Center
09:53AM 39.4008 -75.5225 44° Northeast 315 362 8,400 -1,140 Descending Washington Center
09:54AM 39.4436 -75.4342 58° Northeast 294 338 7,600 -1,080 Descending Washington Center
09:55AM 39.5011 -75.3622 44° Northeast 292 336 6,200 -840 Descending Washington Center
09:56AM 39.5564 -75.2911 45° Northeast 285 328 5,900 -180 Descending Washington Center
09:57AM 39.6119 -75.2208 44° Northeast 283 326 5,900 -540 Level Washington Center
09:58AM 39.6667 -75.1667 37° Northeast 277 319 5,000 -1,080 Descending Philadelphia TRACON
09:59AM 39.7167 -75.0833 52° Northeast 268 308 4,000 -660 Descending Philadelphia TRACON
10:00AM 39.7833 -75.0500 21° North 245 282 3,700 -600 Descending Philadelphia TRACON
10:01AM 39.8333 -75.0833 333° Northwest 189 217 2,800 -1,080 Descending Philadelphia TRACON
10:02AM 39.8667 -75.1167 322° Northwest 176 203 1,600 -900 Descending Philadelphia TRACON
10:03AM 39.8833 -75.1667 293° West 125 144 1,000 -660 Descending Philadelphia TRACON
10:04AM 39.8833 -75.2167 270° West 123 142 300 -720 Descending Philadelphia TRACON